Time;durP1;ratioP1;P1;durP2;ratioP2;P2;SDS_P1;SDS_P2;PMS_P1;PMS_P2;Temp;Humidity;BMP_temperature;BMP_pressure;BME280_temperature;BME280_humidity;BME280_pressure;Samples;Min_cycle;Max_cycle;Signal;HPM_P1;HPM_P2
2022/05/21 00:02:01;0.00;0.00;0.62;0.00;0.00;0.62;3.77;2.93;;;23.10;33.90;;;;;;2248112;61;20423;-54
2022/05/21 00:04:46;0.00;0.00;0.62;0.00;0.00;0.62;4.20;2.93;;;23.00;34.10;;;;;;2247453;61;20442;-58
2022/05/21 00:07:30;0.00;0.00;0.62;0.00;0.00;0.62;4.07;3.53;;;23.00;34.10;;;;;;2247721;61;20411;-57
2022/05/21 00:10:17;0.00;0.00;0.62;0.00;0.00;0.62;4.07;2.87;;;23.00;34.00;;;;;;2247597;61;20784;-56
2022/05/21 00:13:02;0.00;0.00;0.62;0.00;0.00;0.62;3.40;2.63;;;22.90;33.90;;;;;;2248173;61;20756;-54
2022/05/21 00:15:47;0.00;0.00;0.62;0.00;0.00;0.62;4.13;2.70;;;22.90;33.80;;;;;;2252987;61;20387;-64
2022/05/21 00:18:33;0.00;0.00;0.62;0.00;0.00;0.62;2.53;1.97;;;22.90;33.90;;;;;;2248235;61;20442;-61
2022/05/21 00:21:18;0.00;0.00;0.62;0.00;0.00;0.62;3.63;2.23;;;22.80;33.80;;;;;;2247123;61;21386;-55
2022/05/21 00:24:03;0.00;0.00;0.62;0.00;0.00;0.62;3.07;2.07;;;22.80;33.90;;;;;;2248317;61;20419;-58
2022/05/21 00:26:48;0.00;0.00;0.62;0.00;0.00;0.62;2.30;2.00;;;22.80;33.90;;;;;;2247881;61;20384;-56
2022/05/21 00:29:33;0.00;0.00;0.62;0.00;0.00;0.62;3.30;2.00;;;22.80;33.90;;;;;;2247844;61;20367;-57
2022/05/21 00:32:17;0.00;0.00;0.62;0.00;0.00;0.62;2.77;1.77;;;22.90;34.10;;;;;;2247982;61;20364;-56
2022/05/21 00:35:04;0.00;0.00;0.62;0.00;0.00;0.62;4.10;2.03;;;22.80;34.00;;;;;;2247926;61;20429;-57
2022/05/21 00:37:48;0.00;0.00;0.62;0.00;0.00;0.62;1.90;1.37;;;22.80;34.10;;;;;;2247647;61;20375;-53
2022/05/21 00:40:33;0.00;0.00;0.62;0.00;0.00;0.62;2.50;1.63;;;22.90;34.10;;;;;;2248131;61;20379;-51
2022/05/21 00:43:41;0.00;0.00;0.62;0.00;0.00;0.62;2.00;1.50;;;22.80;34.10;;;;;;2248187;61;20979;-55
2022/05/21 00:46:32;0.00;0.00;0.62;0.00;0.00;0.62;2.37;1.60;;;22.90;34.20;;;;;;2249000;61;20442;-57
2022/05/21 00:49:22;0.00;0.00;0.62;0.00;0.00;0.62;2.80;2.17;;;22.90;34.20;;;;;;2248472;61;20769;-55
2022/05/21 00:52:13;0.00;0.00;0.62;0.00;0.00;0.62;3.33;1.70;;;22.90;34.20;;;;;;2247799;61;20451;-55
2022/05/21 00:55:00;0.00;0.00;0.62;0.00;0.00;0.62;2.60;1.90;;;22.90;34.10;;;;;;2248950;61;20434;-53
2022/05/21 00:59:47;0.00;0.00;0.62;0.00;0.00;0.62;2.97;2.30;;;22.90;34.10;;;;;;2248265;61;20419;-53
2022/05/21 01:00:56;0.00;0.00;0.62;0.00;0.00;0.62;2.47;2.27;;;22.90;33.90;;;;;;2247996;61;20372;-54
2022/05/21 01:03:43;0.00;0.00;0.62;0.00;0.00;0.62;2.13;1.60;;;22.90;33.80;;;;;;2250743;61;20378;-55
2022/05/21 01:06:29;0.00;0.00;0.62;0.00;0.00;0.62;2.40;2.07;;;23.00;33.70;;;;;;2248037;61;20489;-57
2022/05/21 01:09:15;0.00;0.00;0.62;0.00;0.00;0.62;2.00;1.80;;;22.90;33.40;;;;;;2248806;61;20776;-56
2022/05/21 01:12:01;0.00;0.00;0.62;0.00;0.00;0.62;4.10;2.07;;;23.00;33.30;;;;;;2248345;61;20571;-61
2022/05/21 01:14:49;0.00;0.00;0.62;0.00;0.00;0.62;2.67;1.63;;;23.00;33.00;;;;;;2248064;61;20395;-58
2022/05/21 01:17:34;0.00;0.00;0.62;0.00;0.00;0.62;3.40;2.20;;;23.00;32.80;;;;;;2249015;61;20383;-57
2022/05/21 01:20:23;0.00;0.00;0.62;0.00;0.00;0.62;2.97;1.70;;;23.00;32.70;;;;;;2248087;61;20379;-60
2022/05/21 01:23:09;0.00;0.00;0.62;0.00;0.00;0.62;2.40;1.50;;;23.00;33.30;;;;;;2249001;61;20572;-54
2022/05/21 01:25:58;0.00;0.00;0.62;0.00;0.00;0.62;2.40;1.90;;;22.90;32.50;;;;;;2248562;61;20427;-57
2022/05/21 01:28:43;0.00;0.00;0.62;0.00;0.00;0.62;2.40;2.10;;;22.90;32.40;;;;;;2248209;61;20450;-58
2022/05/21 01:31:27;0.00;0.00;0.62;0.00;0.00;0.62;2.00;1.67;;;22.90;32.20;;;;;;2248502;61;20912;-56
2022/05/21 01:34:11;0.00;0.00;0.62;0.00;0.00;0.62;2.90;1.80;;;22.80;32.10;;;;;;2248450;61;20367;-59
2022/05/21 01:36:56;0.00;0.00;0.62;0.00;0.00;0.62;2.33;1.80;;;22.80;32.20;;;;;;2248302;61;20478;-55
2022/05/21 01:39:42;0.00;0.00;0.62;0.00;0.00;0.62;2.23;1.40;;;22.80;32.10;;;;;;2249127;61;20364;-53
2022/05/21 01:42:26;0.00;0.00;0.62;0.00;0.00;0.62;2.80;1.67;;;22.70;32.10;;;;;;2247725;61;20368;-56
2022/05/21 01:45:11;0.00;0.00;0.62;0.00;0.00;0.62;2.30;1.37;;;22.70;32.00;;;;;;2248889;61;20403;-55
2022/05/21 01:47:55;0.00;0.00;0.62;0.00;0.00;0.62;2.67;1.80;;;22.70;32.10;;;;;;2248588;61;20360;-54
2022/05/21 01:50:40;0.00;0.00;0.62;0.00;0.00;0.62;2.17;1.73;;;22.70;32.10;;;;;;2247402;61;20641;-55
2022/05/21 01:53:27;0.00;0.00;0.62;0.00;0.00;0.62;2.80;2.10;;;22.60;32.10;;;;;;2248378;61;20368;-59
2022/05/21 01:56:14;0.00;0.00;0.62;0.00;0.00;0.62;2.97;1.77;;;22.60;32.20;;;;;;2248287;61;20423;-53
2022/05/21 01:58:59;0.00;0.00;0.62;0.00;0.00;0.62;3.97;2.20;;;22.50;32.20;;;;;;2248098;61;20391;-54
2022/05/21 02:01:44;0.00;0.00;0.62;0.00;0.00;0.62;2.43;2.00;;;22.50;32.20;;;;;;2248718;61;20456;-61
2022/05/21 02:04:29;0.00;0.00;0.62;0.00;0.00;0.62;3.60;2.60;;;22.50;32.20;;;;;;2248187;61;20427;-59
2022/05/21 02:07:13;0.00;0.00;0.62;0.00;0.00;0.62;3.10;1.63;;;22.50;32.10;;;;;;2248695;61;20382;-54
2022/05/21 02:09:58;0.00;0.00;0.62;0.00;0.00;0.62;3.17;2.27;;;22.50;32.10;;;;;;2248417;61;20983;-57
2022/05/21 02:12:44;0.00;0.00;0.62;0.00;0.00;0.62;2.03;1.80;;;22.40;31.90;;;;;;2247514;61;20503;-57
2022/05/21 02:15:28;0.00;0.00;0.62;0.00;0.00;0.62;3.67;2.50;;;22.40;31.90;;;;;;2248867;61;20379;-55
2022/05/21 02:18:13;0.00;0.00;0.62;0.00;0.00;0.62;2.57;2.20;;;22.40;32.00;;;;;;2248287;61;20440;-56
2022/05/21 02:20:58;0.00;0.00;0.62;0.00;0.00;0.62;2.63;1.87;;;22.30;31.90;;;;;;2247410;61;20359;-61
2022/05/21 02:23:42;0.00;0.00;0.62;0.00;0.00;0.62;2.50;1.93;;;22.30;31.90;;;;;;2248784;61;20821;-55
2022/05/21 02:26:27;0.00;0.00;0.62;0.00;0.00;0.62;2.80;2.47;;;22.30;32.00;;;;;;2248146;61;20841;-53
2022/05/21 02:29:13;0.00;0.00;0.62;0.00;0.00;0.62;3.13;2.37;;;22.20;32.70;;;;;;2248640;61;20403;-59
2022/05/21 02:31:58;0.00;0.00;0.62;0.00;0.00;0.62;5.20;2.70;;;22.10;32.00;;;;;;2248449;61;20456;-55
2022/05/21 02:34:42;0.00;0.00;0.62;0.00;0.00;0.62;3.23;2.63;;;22.10;32.20;;;;;;2248092;61;20367;-52
2022/05/21 02:40:30;0.00;0.00;0.62;0.00;0.00;0.62;2.83;2.33;;;22.10;32.30;;;;;;2247891;61;20444;-53
2022/05/21 02:43:15;0.00;0.00;0.62;0.00;0.00;0.62;3.50;2.50;;;22.00;32.30;;;;;;2247854;61;20387;-52
2022/05/21 02:46:02;0.00;0.00;0.62;0.00;0.00;0.62;3.20;2.90;;;21.90;32.40;;;;;;2248785;61;20435;-55
2022/05/21 02:48:47;0.00;0.00;0.62;0.00;0.00;0.62;8.33;3.40;;;21.90;32.60;;;;;;2248360;61;20947;-53
2022/05/21 02:51:31;0.00;0.00;0.62;0.00;0.00;0.62;3.40;3.10;;;21.80;32.70;;;;;;2247895;61;20415;-56
2022/05/21 02:54:16;0.00;0.00;0.62;0.00;0.00;0.62;3.73;2.80;;;21.80;32.80;;;;;;2248472;61;20466;-53
2022/05/21 02:57:00;0.00;0.00;0.62;0.00;0.00;0.62;4.00;3.27;;;21.80;33.00;;;;;;2247934;61;20419;-53
2022/05/21 02:59:48;0.00;0.00;0.62;0.00;0.00;0.62;3.17;2.87;;;21.70;32.90;;;;;;2248793;61;20399;-53
2022/05/21 03:02:35;0.00;0.00;0.62;0.00;0.00;0.62;5.13;3.00;;;21.70;33.00;;;;;;2247791;61;20503;-53
2022/05/21 03:05:20;0.00;0.00;0.62;0.00;0.00;0.62;3.97;3.37;;;21.70;33.10;;;;;;2247648;61;20383;-53
2022/05/21 03:11:10;0.00;0.00;0.62;0.00;0.00;0.62;3.60;3.23;;;21.60;33.10;;;;;;2245545;61;20371;-58
2022/05/21 03:13:55;0.00;0.00;0.62;0.00;0.00;0.62;5.03;3.90;;;21.50;33.10;;;;;;2248439;61;20364;-57
2022/05/21 03:16:40;0.00;0.00;0.62;0.00;0.00;0.62;4.87;3.53;;;21.50;33.20;;;;;;2248086;61;20859;-56
2022/05/21 03:19:25;0.00;0.00;0.62;0.00;0.00;0.62;4.20;3.80;;;21.50;33.20;;;;;;2247645;61;20453;-50
2022/05/21 03:22:10;0.00;0.00;0.62;0.00;0.00;0.62;4.77;3.00;;;21.50;33.30;;;;;;2248189;61;20367;-54
2022/05/21 03:24:55;0.00;0.00;0.62;0.00;0.00;0.62;5.80;3.57;;;21.40;33.20;;;;;;2247988;61;20443;-57
2022/05/21 03:27:40;0.00;0.00;0.62;0.00;0.00;0.62;3.43;3.10;;;21.40;33.20;;;;;;2247538;61;20372;-55
2022/05/21 03:30:27;0.00;0.00;0.62;0.00;0.00;0.62;4.43;3.20;;;21.40;33.30;;;;;;2248295;61;20484;-55
2022/05/21 03:33:12;0.00;0.00;0.62;0.00;0.00;0.62;5.33;3.70;;;21.30;33.20;;;;;;2248189;61;20752;-52
2022/05/21 03:35:58;0.00;0.00;0.62;0.00;0.00;0.62;5.20;3.80;;;21.30;33.10;;;;;;2248259;61;20387;-50
2022/05/21 03:38:43;0.00;0.00;0.62;0.00;0.00;0.62;6.10;3.50;;;21.30;33.10;;;;;;2248555;61;20418;-55
2022/05/21 03:41:28;0.00;0.00;0.62;0.00;0.00;0.62;4.63;3.37;;;21.30;33.00;;;;;;2247223;61;20407;-51
2022/05/21 03:44:12;0.00;0.00;0.62;0.00;0.00;0.62;7.70;3.90;;;21.30;33.00;;;;;;2248524;61;20797;-52
2022/05/21 03:46:58;0.00;0.00;0.62;0.00;0.00;0.62;5.23;3.40;;;21.30;33.00;;;;;;2248021;61;20395;-60
2022/05/21 03:49:43;0.00;0.00;0.62;0.00;0.00;0.62;4.40;3.43;;;21.30;32.90;;;;;;2247681;61;20411;-54
2022/05/21 03:52:29;0.00;0.00;0.62;0.00;0.00;0.62;4.80;3.90;;;21.30;32.90;;;;;;2248220;61;20892;-53
2022/05/21 03:55:14;0.00;0.00;0.62;0.00;0.00;0.62;4.63;4.00;;;21.30;32.90;;;;;;2248051;61;20434;-54
2022/05/21 03:58:00;0.00;0.00;0.62;0.00;0.00;0.62;4.43;3.67;;;21.20;32.80;;;;;;2248419;61;20363;-50
2022/05/21 04:00:44;0.00;0.00;0.62;0.00;0.00;0.62;4.30;3.50;;;21.20;32.70;;;;;;2248350;61;20487;-53
2022/05/21 04:03:30;0.00;0.00;0.62;0.00;0.00;0.62;8.67;4.73;;;21.20;32.70;;;;;;2247733;61;20797;-54
2022/05/21 04:06:15;0.00;0.00;0.62;0.00;0.00;0.62;4.30;3.80;;;21.20;32.60;;;;;;2248365;61;20470;-56
2022/05/21 04:09:03;0.00;0.00;0.62;0.00;0.00;0.62;4.97;4.20;;;21.20;32.60;;;;;;2247745;61;20410;-54
2022/05/21 04:11:48;0.00;0.00;0.62;0.00;0.00;0.62;5.30;3.90;;;21.20;32.60;;;;;;2247230;61;20937;-54
2022/05/21 04:14:32;0.00;0.00;0.62;0.00;0.00;0.62;5.83;4.40;;;21.20;32.70;;;;;;2248413;61;20418;-55
2022/05/21 04:17:17;0.00;0.00;0.62;0.00;0.00;0.62;5.80;5.00;;;21.20;32.60;;;;;;2248657;61;20967;-57
2022/05/21 04:20:02;0.00;0.00;0.62;0.00;0.00;0.62;5.73;4.90;;;21.20;32.60;;;;;;2248288;61;20456;-58
2022/05/21 04:22:47;0.00;0.00;0.62;0.00;0.00;0.62;6.75;4.35;;;21.10;32.50;;;;;;2248819;61;20483;-56
2022/05/21 04:25:33;0.00;0.00;0.62;0.00;0.00;0.62;6.87;4.37;;;21.10;32.70;;;;;;2247775;61;20411;-58
2022/05/21 04:28:17;0.00;0.00;0.62;0.00;0.00;0.62;4.43;4.00;;;21.10;32.60;;;;;;2249189;61;20367;-52
2022/05/21 04:31:02;0.00;0.00;0.62;0.00;0.00;0.62;5.23;4.57;;;21.10;32.70;;;;;;2248248;61;20810;-53
2022/05/21 04:33:47;0.00;0.00;0.62;0.00;0.00;0.62;7.73;4.40;;;21.10;32.80;;;;;;2248462;61;20430;-54
2022/05/21 04:36:32;0.00;0.00;0.62;0.00;0.00;0.62;6.70;5.37;;;21.10;32.80;;;;;;2249161;61;20922;-54
2022/05/21 04:39:16;0.00;0.00;0.62;0.00;0.00;0.62;7.13;5.10;;;21.00;32.80;;;;;;2248569;61;20368;-55
2022/05/21 04:42:03;0.00;0.00;0.62;0.00;0.00;0.62;8.17;5.60;;;21.00;32.90;;;;;;2247964;61;20427;-55
2022/05/21 04:44:47;0.00;0.00;0.62;0.00;0.00;0.62;5.67;5.07;;;20.90;32.90;;;;;;2249179;61;20787;-56
2022/05/21 04:47:32;0.00;0.00;0.62;0.00;0.00;0.62;6.33;5.70;;;21.00;33.00;;;;;;2248323;61;20620;-57
2022/05/21 04:50:16;0.00;0.00;0.62;0.00;0.00;0.62;11.70;5.63;;;20.90;33.00;;;;;;2248778;61;20371;-53
2022/05/21 04:53:00;0.00;0.00;0.62;0.00;0.00;0.62;6.57;6.00;;;21.00;33.10;;;;;;2248539;61;20371;-53
2022/05/21 04:55:45;0.00;0.00;0.62;0.00;0.00;0.62;7.90;6.17;;;20.90;33.10;;;;;;2248017;61;20379;-57
2022/05/21 04:58:32;0.00;0.00;0.62;0.00;0.00;0.62;6.90;6.20;;;20.90;33.10;;;;;;2249250;61;20376;-52
2022/05/21 05:01:16;0.00;0.00;0.62;0.00;0.00;0.62;7.93;6.60;;;20.90;33.20;;;;;;2248064;61;20422;-56
2022/05/21 05:04:01;0.00;0.00;0.62;0.00;0.00;0.62;9.37;6.80;;;20.90;33.20;;;;;;2248266;61;20418;-55
2022/05/21 05:06:45;0.00;0.00;0.62;0.00;0.00;0.62;7.53;6.23;;;20.90;33.20;;;;;;2248876;61;20950;-55
2022/05/21 05:09:30;0.00;0.00;0.62;0.00;0.00;0.62;8.00;6.60;;;20.90;33.30;;;;;;2248627;61;20414;-57
2022/05/21 05:12:16;0.00;0.00;0.62;0.00;0.00;0.62;6.93;6.33;;;20.90;33.30;;;;;;2248259;61;20364;-50
2022/05/21 05:15:02;0.00;0.00;0.62;0.00;0.00;0.62;8.50;7.63;;;20.90;33.40;;;;;;2248891;61;20408;-59
2022/05/21 05:17:47;0.00;0.00;0.62;0.00;0.00;0.62;7.90;7.03;;;21.00;33.50;;;;;;2248191;61;20442;-53
2022/05/21 05:20:33;0.00;0.00;0.62;0.00;0.00;0.62;9.40;8.47;;;21.00;33.50;;;;;;2248909;61;20427;-56
2022/05/21 05:23:17;0.00;0.00;0.62;0.00;0.00;0.62;8.33;7.33;;;20.90;33.40;;;;;;2248458;61;20408;-56
2022/05/21 05:26:02;0.00;0.00;0.62;0.00;0.00;0.62;10.70;7.43;;;20.90;33.50;;;;;;2248082;61;20444;-55
2022/05/21 05:28:47;0.00;0.00;0.62;0.00;0.00;0.62;9.20;8.30;;;20.90;33.50;;;;;;2249341;61;20415;-54
2022/05/21 05:31:33;0.00;0.00;0.62;0.00;0.00;0.62;8.63;7.73;;;20.90;33.50;;;;;;2248084;61;20472;-53
2022/05/21 05:34:18;0.00;0.00;0.62;0.00;0.00;0.62;9.53;8.50;;;21.00;33.60;;;;;;2248489;61;20384;-55
2022/05/21 05:37:03;0.00;0.00;0.62;0.00;0.00;0.62;10.20;9.10;;;21.00;33.60;;;;;;2249010;61;20372;-55
2022/05/21 05:39:48;0.00;0.00;0.62;0.00;0.00;0.62;15.00;12.27;;;21.00;33.70;;;;;;2247964;61;20426;-56
2022/05/21 05:42:35;0.00;0.00;0.62;0.00;0.00;0.62;13.57;10.47;;;21.00;33.80;;;;;;2248580;61;20384;-53
2022/05/21 05:45:20;0.00;0.00;0.62;0.00;0.00;0.62;12.17;10.87;;;21.00;33.80;;;;;;2248286;61;20924;-55
2022/05/21 05:48:07;0.00;0.00;0.62;0.00;0.00;0.62;11.93;10.73;;;21.00;33.80;;;;;;2248173;61;20900;-55
2022/05/21 05:50:51;0.00;0.00;0.62;0.00;0.00;0.62;14.07;11.70;;;21.00;33.80;;;;;;2248472;61;20464;-55
2022/05/21 05:53:36;0.00;0.00;0.62;0.00;0.00;0.62;13.27;11.93;;;21.00;33.80;;;;;;2248355;61;20419;-54
2022/05/21 05:56:21;0.00;0.00;0.62;0.00;0.00;0.62;15.00;13.67;;;21.00;33.80;;;;;;2247723;61;20846;-58
2022/05/21 06:05:18;0.00;0.00;0.62;0.00;0.00;0.62;14.90;13.70;;;21.00;33.90;;;;;;2248467;61;20959;-57
2022/05/21 06:08:06;0.00;0.00;0.62;0.00;0.00;0.62;15.80;12.53;;;21.00;34.00;;;;;;2247898;61;20360;-56
2022/05/21 06:10:51;0.00;0.00;0.62;0.00;0.00;0.62;13.50;12.20;;;21.00;34.00;;;;;;2247642;61;20419;-57
2022/05/21 06:13:36;0.00;0.00;0.62;0.00;0.00;0.62;13.47;12.17;;;21.00;34.10;;;;;;2248325;61;20364;-58
2022/05/21 06:16:21;0.00;0.00;0.62;0.00;0.00;0.62;12.60;11.40;;;21.00;34.00;;;;;;2247455;61;20398;-57
2022/05/21 06:19:06;0.00;0.00;0.62;0.00;0.00;0.62;13.20;11.90;;;21.00;34.10;;;;;;2248395;61;20379;-60
2022/05/21 06:21:57;0.00;0.00;0.62;0.00;0.00;0.62;12.83;11.73;;;21.00;34.10;;;;;;2247591;61;20904;-54
2022/05/21 06:24:42;0.00;0.00;0.62;0.00;0.00;0.62;12.60;11.40;;;21.00;34.10;;;;;;2247708;61;20968;-58
2022/05/21 06:27:27;0.00;0.00;0.62;0.00;0.00;0.62;11.00;10.00;;;21.00;34.10;;;;;;2248357;61;20362;-55
2022/05/21 06:30:13;0.00;0.00;0.62;0.00;0.00;0.62;10.50;9.33;;;21.00;34.20;;;;;;2252765;61;20379;-61
2022/05/21 06:32:59;0.00;0.00;0.62;0.00;0.00;0.62;12.33;11.13;;;21.00;34.20;;;;;;2248014;61;20444;-59
2022/05/21 06:35:44;0.00;0.00;0.62;0.00;0.00;0.62;13.53;11.37;;;21.00;34.30;;;;;;2248285;61;20959;-59
2022/05/21 06:38:30;0.00;0.00;0.62;0.00;0.00;0.62;11.97;10.80;;;21.00;34.50;;;;;;2247440;61;20363;-57
2022/05/21 06:41:15;0.00;0.00;0.62;0.00;0.00;0.62;12.67;11.57;;;21.00;34.50;;;;;;2247665;61;20422;-57
2022/05/21 06:43:59;0.00;0.00;0.62;0.00;0.00;0.62;12.10;11.00;;;21.00;34.50;;;;;;2247788;61;20423;-58
2022/05/21 06:46:44;0.00;0.00;0.62;0.00;0.00;0.62;10.63;9.37;;;21.00;34.70;;;;;;2247093;61;20887;-56
2022/05/21 06:49:28;0.00;0.00;0.62;0.00;0.00;0.62;10.80;9.80;;;21.00;34.50;;;;;;2248290;61;20438;-51
2022/05/21 06:52:13;0.00;0.00;0.62;0.00;0.00;0.62;10.47;9.37;;;21.00;34.50;;;;;;2245247;61;20384;-66
2022/05/21 06:55:00;0.00;0.00;0.62;0.00;0.00;0.62;8.73;7.93;;;21.00;34.60;;;;;;2327391;53;20383;-64
2022/05/21 06:57:44;0.00;0.00;0.62;0.00;0.00;0.62;9.10;7.90;;;21.00;34.70;;;;;;2248151;61;20761;-66
2022/05/21 07:00:29;0.00;0.00;0.62;0.00;0.00;0.62;9.33;8.30;;;21.00;34.90;;;;;;2246774;61;20399;-57
2022/05/21 07:03:13;0.00;0.00;0.62;0.00;0.00;0.62;7.80;7.10;;;21.00;34.90;;;;;;2248159;61;20360;-54
2022/05/21 07:09:02;0.00;0.00;0.62;0.00;0.00;0.62;6.83;5.57;;;21.00;35.00;;;;;;2247961;61;20359;-61
2022/05/21 07:11:50;0.00;0.00;0.62;0.00;0.00;0.62;7.67;5.93;;;21.00;35.00;;;;;;2247617;61;20363;-60
2022/05/21 07:14:35;0.00;0.00;0.62;0.00;0.00;0.62;6.90;5.20;;;21.00;35.20;;;;;;2247249;61;20565;-55
2022/05/21 07:17:20;0.00;0.00;0.62;0.00;0.00;0.62;8.10;5.60;;;21.00;35.10;;;;;;2247980;61;20472;-56
2022/05/21 07:20:11;0.00;0.00;0.62;0.00;0.00;0.62;7.90;6.30;;;21.00;35.20;;;;;;2248189;61;20399;-53
2022/05/21 07:22:56;0.00;0.00;0.62;0.00;0.00;0.62;8.40;5.40;;;21.10;35.30;;;;;;2247394;61;20645;-55
2022/05/21 07:25:41;0.00;0.00;0.62;0.00;0.00;0.62;6.80;5.90;;;21.10;35.30;;;;;;2248072;61;20844;-53
2022/05/21 07:28:27;0.00;0.00;0.62;0.00;0.00;0.62;6.47;5.70;;;21.10;35.30;;;;;;2250004;61;20422;-57
2022/05/21 07:31:12;0.00;0.00;0.62;0.00;0.00;0.62;8.47;5.77;;;21.10;35.20;;;;;;2247513;61;20392;-61
2022/05/21 07:33:56;0.00;0.00;0.62;0.00;0.00;0.62;5.90;4.17;;;21.10;35.20;;;;;;2248041;61;20651;-67
2022/05/21 07:36:41;0.00;0.00;0.62;0.00;0.00;0.62;4.10;3.80;;;21.10;35.10;;;;;;2248200;61;20388;-67
2022/05/21 07:39:26;0.00;0.00;0.62;0.00;0.00;0.62;4.93;3.50;;;21.20;35.20;;;;;;2248061;61;20391;-65
2022/05/21 07:42:10;0.00;0.00;0.62;0.00;0.00;0.62;3.70;3.13;;;21.20;35.10;;;;;;2247833;61;20458;-56
2022/05/21 07:44:58;0.00;0.00;0.62;0.00;0.00;0.62;4.07;3.10;;;21.30;35.20;;;;;;2247124;61;20455;-60
2022/05/21 07:47:43;0.00;0.00;0.62;0.00;0.00;0.62;4.47;2.50;;;21.30;35.10;;;;;;2247862;61;20410;-66
2022/05/21 07:50:27;0.00;0.00;0.62;0.00;0.00;0.62;4.23;2.37;;;21.40;35.20;;;;;;2247029;61;20411;-60
2022/05/21 07:53:13;0.00;0.00;0.62;0.00;0.00;0.62;4.67;3.40;;;21.40;35.20;;;;;;2247749;61;20457;-60
2022/05/21 07:55:59;0.00;0.00;0.62;0.00;0.00;0.62;3.87;3.57;;;21.40;35.20;;;;;;2248250;61;20835;-58
2022/05/21 07:58:43;0.00;0.00;0.62;0.00;0.00;0.62;5.50;4.10;;;21.50;35.30;;;;;;2247598;61;20374;-55
2022/05/21 08:01:29;0.00;0.00;0.62;0.00;0.00;0.62;7.93;3.43;;;21.50;35.30;;;;;;2247020;61;21202;-57
2022/05/21 08:04:14;0.00;0.00;0.62;0.00;0.00;0.62;5.60;3.80;;;21.50;35.20;;;;;;2253101;61;20476;-60
2022/05/21 08:06:58;0.00;0.00;0.62;0.00;0.00;0.62;5.77;4.13;;;21.60;35.30;;;;;;2246512;61;20642;-59
2022/05/21 08:09:43;0.00;0.00;0.62;0.00;0.00;0.62;4.17;3.73;;;21.60;35.10;;;;;;2247731;61;20371;-60
2022/05/21 08:12:27;0.00;0.00;0.62;0.00;0.00;0.62;4.67;3.90;;;21.70;35.20;;;;;;2247832;61;20367;-60
2022/05/21 08:15:12;0.00;0.00;0.62;0.00;0.00;0.62;5.27;3.00;;;21.70;35.10;;;;;;2247429;61;20434;-56
2022/05/21 08:17:59;0.00;0.00;0.62;0.00;0.00;0.62;3.97;3.30;;;21.70;35.00;;;;;;2247615;61;20949;-59
2022/05/21 08:20:44;0.00;0.00;0.62;0.00;0.00;0.62;3.60;3.10;;;21.80;35.00;;;;;;2247321;61;20410;-54
2022/05/21 08:29:36;0.00;0.00;0.62;0.00;0.00;0.62;3.60;3.00;;;21.80;35.00;;;;;;2249234;61;20812;-57
2022/05/21 08:32:21;0.00;0.00;0.62;0.00;0.00;0.62;7.87;3.20;;;21.90;34.90;;;;;;2247523;61;20749;-58
2022/05/21 08:35:08;0.00;0.00;0.62;0.00;0.00;0.62;3.60;2.83;;;21.90;34.80;;;;;;2246936;61;20395;-67
2022/05/21 08:37:53;0.00;0.00;0.62;0.00;0.00;0.62;3.27;2.50;;;22.00;34.90;;;;;;2247727;61;20422;-60
2022/05/21 08:40:44;0.00;0.00;0.62;0.00;0.00;0.62;3.80;2.67;;;22.00;34.90;;;;;;2252616;61;20366;-61
2022/05/21 08:43:39;0.00;0.00;0.62;0.00;0.00;0.62;5.20;2.60;;;22.00;34.80;;;;;;2247381;61;20515;-60
2022/05/21 08:46:37;0.00;0.00;0.62;0.00;0.00;0.62;3.60;2.40;;;22.00;34.80;;;;;;2247196;61;20438;-60
2022/05/21 08:49:29;0.00;0.00;0.62;0.00;0.00;0.62;4.27;2.50;;;22.10;34.80;;;;;;2247947;61;20422;-55
2022/05/21 08:52:23;0.00;0.00;0.62;0.00;0.00;0.62;3.10;2.67;;;22.10;34.80;;;;;;2247166;61;20372;-59
2022/05/21 08:55:11;0.00;0.00;0.62;0.00;0.00;0.62;3.50;2.57;;;22.10;34.70;;;;;;2248003;61;20777;-59
2022/05/21 08:58:00;0.00;0.00;0.62;0.00;0.00;0.62;4.50;2.60;;;22.20;34.80;;;;;;2247463;61;20396;-58
2022/05/21 09:00:48;0.00;0.00;0.62;0.00;0.00;0.62;2.93;2.40;;;22.20;34.70;;;;;;2247187;61;20470;-62
2022/05/21 09:03:32;0.00;0.00;0.62;0.00;0.00;0.62;3.20;2.20;;;22.20;34.60;;;;;;2248573;61;20383;-54
2022/05/21 09:06:33;0.00;0.00;0.62;0.00;0.00;0.62;3.87;2.70;;;22.30;34.60;;;;;;2248061;61;20391;-59
2022/05/21 09:09:38;0.00;0.00;0.62;0.00;0.00;0.62;2.60;2.03;;;22.30;34.50;;;;;;2248712;61;20370;-57
2022/05/21 09:12:33;0.00;0.00;0.62;0.00;0.00;0.62;5.20;2.90;;;22.40;34.50;;;;;;2247629;61;20438;-62
2022/05/21 09:18:26;0.00;0.00;0.62;0.00;0.00;0.62;4.50;2.10;;;22.40;34.40;;;;;;2248085;61;20920;-60
2022/05/21 09:21:16;0.00;0.00;0.62;0.00;0.00;0.62;3.30;2.40;;;22.40;34.40;;;;;;2252431;61;20939;-56
2022/05/21 09:24:04;0.00;0.00;0.62;0.00;0.00;0.62;3.30;2.60;;;22.50;34.40;;;;;;2248526;61;20859;-57
2022/05/21 09:26:52;0.00;0.00;0.62;0.00;0.00;0.62;2.80;1.90;;;22.50;34.40;;;;;;2247782;61;20435;-56
2022/05/21 09:29:37;0.00;0.00;0.62;0.00;0.00;0.62;2.73;1.97;;;22.50;34.30;;;;;;2247831;61;20372;-67
2022/05/21 09:32:31;0.00;0.00;0.62;0.00;0.00;0.62;3.90;2.20;;;22.50;34.30;;;;;;2248107;61;20415;-58
2022/05/21 09:35:19;0.00;0.00;0.62;0.00;0.00;0.62;5.03;2.37;;;22.60;34.30;;;;;;2247612;61;20375;-58
2022/05/21 09:38:13;0.00;0.00;0.62;0.00;0.00;0.62;5.60;2.03;;;22.60;34.30;;;;;;2248451;61;20368;-56
2022/05/21 09:41:17;0.00;0.00;0.62;0.00;0.00;0.62;3.80;2.17;;;22.60;34.20;;;;;;2247549;61;20372;-61
2022/05/21 09:47:43;0.00;0.00;0.62;0.00;0.00;0.62;4.27;2.13;;;22.70;34.20;;;;;;2243012;61;20490;-59
2022/05/21 09:50:27;0.00;0.00;0.62;0.00;0.00;0.62;4.03;2.20;;;22.80;34.90;;;;;;2239973;61;20381;-54
2022/05/21 09:53:36;0.00;0.00;0.62;0.00;0.00;0.62;2.63;2.00;;;22.80;34.20;;;;;;2247883;61;20806;-59
2022/05/21 09:56:24;0.00;0.00;0.62;0.00;0.00;0.62;8.00;2.60;;;22.80;34.10;;;;;;2247912;61;20475;-60
2022/05/21 09:59:13;0.00;0.00;0.62;0.00;0.00;0.62;3.80;2.30;;;22.80;34.10;;;;;;2248095;61;20371;-61
2022/05/21 10:02:01;0.00;0.00;0.62;0.00;0.00;0.62;3.07;2.20;;;22.90;34.20;;;;;;2247839;61;20383;-58
2022/05/21 10:04:52;0.00;0.00;0.62;0.00;0.00;0.62;4.83;2.47;;;22.90;34.20;;;;;;2247930;61;20439;-60
2022/05/21 10:10:59;0.00;0.00;0.62;0.00;0.00;0.62;4.17;1.90;;;22.90;34.20;;;;;;2247896;61;20796;-57
2022/05/21 10:13:51;0.00;0.00;0.62;0.00;0.00;0.62;3.20;2.47;;;23.00;34.20;;;;;;2247842;61;20877;-56
2022/05/21 10:16:45;0.00;0.00;0.62;0.00;0.00;0.62;2.60;2.13;;;23.00;34.20;;;;;;2247890;61;20423;-57
2022/05/21 10:19:42;0.00;0.00;0.62;0.00;0.00;0.62;4.53;1.80;;;23.00;34.10;;;;;;2247825;61;20411;-57
2022/05/21 10:22:39;0.00;0.00;0.62;0.00;0.00;0.62;5.33;2.70;;;23.00;34.00;;;;;;2247420;61;20495;-59
2022/05/21 10:25:34;0.00;0.00;0.62;0.00;0.00;0.62;4.33;1.83;;;23.10;34.10;;;;;;2247897;61;20387;-61
2022/05/21 10:28:33;0.00;0.00;0.62;0.00;0.00;0.62;3.97;2.53;;;23.10;33.90;;;;;;2247893;61;20457;-57
2022/05/21 10:31:48;0.00;0.00;0.62;0.00;0.00;0.62;4.03;2.00;;;23.10;33.90;;;;;;2247350;61;20787;-58
2022/05/21 10:34:52;0.00;0.00;0.62;0.00;0.00;0.62;2.53;1.63;;;23.10;33.80;;;;;;2247187;61;20473;-57
2022/05/21 10:37:58;0.00;0.00;0.62;0.00;0.00;0.62;4.10;2.10;;;23.20;33.80;;;;;;2248072;61;20832;-58
2022/05/21 10:40:53;0.00;0.00;0.62;0.00;0.00;0.62;4.10;2.13;;;23.20;33.90;;;;;;2247621;61;20359;-55
2022/05/21 10:43:58;0.00;0.00;0.62;0.00;0.00;0.62;3.10;2.03;;;23.20;33.80;;;;;;2247699;61;20800;-57
2022/05/21 10:46:56;0.00;0.00;0.62;0.00;0.00;0.62;3.17;1.90;;;23.20;33.70;;;;;;2248333;61;20383;-58
2022/05/21 10:50:10;0.00;0.00;0.62;0.00;0.00;0.62;2.70;1.67;;;23.20;33.60;;;;;;2247668;61;20418;-55
2022/05/21 10:53:26;0.00;0.00;0.62;0.00;0.00;0.62;5.20;2.30;;;23.30;33.40;;;;;;2248320;61;20379;-60
2022/05/21 10:56:39;0.00;0.00;0.62;0.00;0.00;0.62;4.03;2.10;;;23.30;33.40;;;;;;2247872;61;20387;-58
2022/05/21 10:59:55;0.00;0.00;0.62;0.00;0.00;0.62;3.80;2.30;;;23.30;33.30;;;;;;2242791;61;20722;-60
2022/05/21 11:03:37;0.00;0.00;0.62;0.00;0.00;0.62;4.97;2.90;;;23.40;33.30;;;;;;2248026;61;20403;-56
2022/05/21 11:06:59;0.00;0.00;0.62;0.00;0.00;0.62;4.00;2.00;;;23.40;33.10;;;;;;2247509;61;20396;-57
2022/05/21 11:09:56;0.00;0.00;0.62;0.00;0.00;0.62;2.90;1.73;;;23.40;33.00;;;;;;2248342;61;20782;-60
2022/05/21 11:12:52;0.00;0.00;0.62;0.00;0.00;0.62;3.37;1.90;;;23.50;33.10;;;;;;2247065;61;20983;-59
2022/05/21 11:15:46;0.00;0.00;0.62;0.00;0.00;0.62;5.77;2.20;;;23.50;33.10;;;;;;2248219;61;20525;-57
2022/05/21 11:18:43;0.00;0.00;0.62;0.00;0.00;0.62;3.90;1.80;;;23.50;33.10;;;;;;2247440;61;20411;-59
2022/05/21 11:21:36;0.00;0.00;0.62;0.00;0.00;0.62;3.83;2.20;;;23.50;33.00;;;;;;2247518;61;20948;-58
2022/05/21 11:24:33;0.00;0.00;0.62;0.00;0.00;0.62;3.07;1.90;;;23.60;33.00;;;;;;2247892;61;20380;-58
2022/05/21 11:27:24;0.00;0.00;0.62;0.00;0.00;0.62;3.17;1.60;;;23.60;33.00;;;;;;2247453;61;21113;-59
2022/05/21 11:30:14;0.00;0.00;0.62;0.00;0.00;0.62;2.57;1.90;;;23.60;32.90;;;;;;2248036;61;20395;-60
2022/05/21 11:39:19;0.00;0.00;0.62;0.00;0.00;0.62;2.77;1.87;;;23.70;32.80;;;;;;2247681;61;20371;-61
2022/05/21 11:42:14;0.00;0.00;0.62;0.00;0.00;0.62;2.70;1.80;;;23.70;32.70;;;;;;2246930;61;20896;-61